Time;durP1;ratioP1;P1;durP2;ratioP2;P2;SDS_P1;SDS_P2;PMS_P1;PMS_P2;Temp;Humidity;BMP_temperature;BMP_pressure;BME280_temperature;BME280_humidity;BME280_pressure;Samples;Min_cycle;Max_cycle;Signal;HPM_P1;HPM_P2
2022/03/19 00:01:13;;;;;;;14.18;7.72;;;;;;;9.02;60.90;104121.03;3590101;40;20079;-65
2022/03/19 00:03:40;;;;;;;13.50;7.40;;;;;;;9.02;61.13;104132.66;3589895;39;20291;-66
2022/03/19 00:06:06;;;;;;;13.85;7.50;;;;;;;9.01;61.47;104130.00;3590911;40;20089;-65
2022/03/19 00:08:32;;;;;;;11.02;6.93;;;;;;;8.77;61.34;104090.69;3591862;39;20051;-65
2022/03/19 00:10:58;;;;;;;11.80;6.72;;;;;;;8.91;61.04;104123.75;3588728;40;20386;-65
2022/03/19 00:13:24;;;;;;;10.43;7.28;;;;;;;8.79;61.45;104110.34;3591994;39;20386;-65
2022/03/19 00:15:50;;;;;;;14.57;7.93;;;;;;;8.84;61.62;104122.84;3591038;40;20129;-65
2022/03/19 00:18:16;;;;;;;10.30;7.18;;;;;;;8.78;61.62;104122.84;3592642;40;20125;-65
2022/03/19 00:20:43;;;;;;;11.98;7.47;;;;;;;8.73;62.30;104118.41;3589458;39;20062;-65
2022/03/19 00:23:09;;;;;;;12.55;8.25;;;;;;;8.67;61.85;104124.66;3590846;39;20072;-65
2022/03/19 00:25:35;;;;;;;11.70;8.13;;;;;;;8.59;62.76;104116.63;3591257;40;20059;-65
2022/03/19 00:28:01;;;;;;;12.95;7.85;;;;;;;8.54;62.45;104106.81;3591559;39;20055;-66
2022/03/19 00:30:27;;;;;;;8.43;7.38;;;;;;;8.45;62.67;104091.59;3591997;40;20117;-65
2022/03/19 00:32:52;;;;;;;15.80;8.10;;;;;;;8.58;62.91;104122.88;3591284;39;20382;-66
2022/03/19 00:35:18;;;;;;;14.20;7.80;;;;;;;8.54;62.93;104113.06;3591132;40;20120;-65
2022/03/19 00:37:50;;;;;;;13.88;7.60;;;;;;;8.57;63.19;104117.53;3591229;39;20075;-68
2022/03/19 00:40:18;;;;;;;13.20;7.63;;;;;;;8.49;62.52;104105.91;3591991;40;20060;-65
2022/03/19 00:42:44;;;;;;;16.48;8.35;;;;;;;8.48;62.50;104099.66;3589967;39;21239;-66
2022/03/19 00:45:11;;;;;;;14.02;8.13;;;;;;;8.51;62.84;104109.47;3590743;39;20059;-65
2022/03/19 00:47:37;;;;;;;12.80;7.70;;;;;;;8.53;62.75;104110.34;3593243;39;20374;-65
2022/03/19 00:50:05;;;;;;;14.93;8.35;;;;;;;8.49;62.85;104106.78;3593266;39;20082;-65
2022/03/19 00:52:31;;;;;;;11.98;8.35;;;;;;;8.04;63.53;104036.19;3591263;39;20091;-65
2022/03/19 00:54:57;;;;;;;16.83;8.25;;;;;;;8.39;62.95;104088.94;3593324;40;20048;-65
2022/03/19 00:57:23;;;;;;;13.95;8.35;;;;;;;8.39;63.14;104096.97;3593650;39;20301;-65
2022/03/19 00:59:48;;;;;;;14.15;8.30;;;;;;;8.40;62.96;104106.78;3591636;40;20103;-65
2022/03/19 01:02:14;;;;;;;13.88;8.18;;;;;;;8.40;63.21;104104.09;3593324;39;21661;-65
2022/03/19 01:04:40;;;;;;;13.15;8.07;;;;;;;8.36;63.63;104103.19;3592481;39;20068;-65
2022/03/19 01:07:05;;;;;;;15.23;8.30;;;;;;;8.35;63.58;104100.50;3592077;39;20051;-65
2022/03/19 01:09:31;;;;;;;17.77;8.82;;;;;;;8.34;63.91;104096.03;3589065;40;20055;-65
2022/03/19 01:11:56;;;;;;;12.93;7.93;;;;;;;8.36;63.64;104104.97;3589683;40;20591;-65
2022/03/19 01:14:22;;;;;;;16.48;8.40;;;;;;;8.36;63.81;104099.59;3591886;40;20048;-65
2022/03/19 01:16:47;;;;;;;14.10;8.88;;;;;;;8.33;63.29;104107.66;3592314;39;20055;-65
2022/03/19 01:19:14;;;;;;;12.35;8.82;;;;;;;8.31;64.20;104104.09;3592810;40;20059;-65
2022/03/19 01:21:40;;;;;;;14.65;8.57;;;;;;;8.26;63.96;104101.41;3593272;39;20056;-65
2022/03/19 01:24:06;;;;;;;14.05;8.65;;;;;;;8.26;64.14;104100.50;3589632;39;20067;-65
2022/03/19 01:26:32;;;;;;;11.52;8.77;;;;;;;8.19;64.00;104079.97;3592836;40;20047;-65
2022/03/19 01:28:58;;;;;;;12.88;9.25;;;;;;;8.19;63.83;104088.00;3592643;40;20047;-65
2022/03/19 01:31:26;;;;;;;15.43;9.60;;;;;;;8.12;63.81;104082.66;3589678;40;20116;-65
2022/03/19 01:33:55;;;;;;;13.88;9.57;;;;;;;8.14;64.21;104096.03;3591248;40;20125;-65
2022/03/19 01:36:21;;;;;;;16.70;9.30;;;;;;;8.14;64.90;104096.91;3592396;40;20063;-65
2022/03/19 01:38:47;;;;;;;12.60;9.75;;;;;;;8.11;64.19;104086.19;3592157;39;20133;-65
2022/03/19 01:41:13;;;;;;;18.95;9.57;;;;;;;8.04;65.09;104079.03;3592555;40;20043;-65
2022/03/19 01:43:40;;;;;;;14.95;9.57;;;;;;;7.95;64.59;104068.31;3590984;40;20075;-65
2022/03/19 01:46:09;;;;;;;15.27;9.77;;;;;;;7.95;65.02;104068.31;3592567;40;20761;-65
2022/03/19 01:48:34;;;;;;;17.73;9.88;;;;;;;7.99;64.90;104080.84;3591643;39;20040;-64
2022/03/19 01:51:00;;;;;;;16.67;10.05;;;;;;;7.95;65.24;104084.41;3589022;39;20063;-65
2022/03/19 01:53:26;;;;;;;15.60;10.25;;;;;;;7.87;65.07;104070.13;3591169;40;20056;-65
2022/03/19 01:55:55;;;;;;;16.30;10.38;;;;;;;7.74;65.77;104060.25;3591697;40;20061;-65
2022/03/19 01:58:20;;;;;;;16.35;10.48;;;;;;;7.85;65.62;104077.25;3591602;40;20141;-64
2022/03/19 02:00:46;;;;;;;16.55;10.98;;;;;;;7.82;65.86;104077.22;3592604;39;20055;-65
2022/03/19 02:03:12;;;;;;;16.25;10.82;;;;;;;7.72;65.73;104070.06;3591548;40;20060;-64
2022/03/19 02:05:38;;;;;;;14.70;11.32;;;;;;;7.64;65.62;104057.56;3591443;40;20047;-68
2022/03/19 02:08:04;;;;;;;19.73;11.93;;;;;;;7.73;66.15;104082.56;3591171;40;20116;-65
2022/03/19 02:10:30;;;;;;;18.50;11.40;;;;;;;7.67;66.19;104062.94;3594460;39;20055;-65
2022/03/19 02:12:56;;;;;;;14.68;11.55;;;;;;;7.61;66.53;104046.84;3591771;39;20047;-65
2022/03/19 02:15:23;;;;;;;18.30;11.88;;;;;;;7.60;66.34;104055.75;3589962;40;20056;-65
2022/03/19 02:17:49;;;;;;;17.88;11.80;;;;;;;7.57;66.56;104065.56;3591035;40;20124;-65
2022/03/19 02:20:15;;;;;;;15.93;11.95;;;;;;;7.56;66.57;104051.28;3592819;40;20108;-65
2022/03/19 02:25:34;;;;;;;16.42;11.75;;;;;;;7.43;66.80;104042.34;3591614;39;20060;-65
2022/03/19 02:25:35;;;;;;;15.68;12.50;;;;;;;7.54;67.18;104046.81;3590666;40;20283;-65
2022/03/19 02:28:01;;;;;;;19.63;12.32;;;;;;;7.50;67.25;104042.34;3591752;39;20387;-65
2022/03/19 02:30:27;;;;;;;21.02;12.88;;;;;;;7.30;67.03;104019.09;3592573;40;20046;-65
2022/03/19 02:32:53;;;;;;;20.10;12.95;;;;;;;7.42;67.48;104036.97;3592022;39;20043;-65
2022/03/19 02:35:19;;;;;;;19.63;12.48;;;;;;;7.29;67.62;104009.25;3591230;39;20066;-65
2022/03/19 02:37:49;;;;;;;18.42;12.40;;;;;;;7.43;67.34;104025.38;3591295;40;20115;-65
2022/03/19 02:40:19;;;;;;;18.50;13.52;;;;;;;7.42;68.05;104028.94;3591166;40;20088;-67
2022/03/19 02:42:54;;;;;;;21.30;14.05;;;;;;;7.32;67.92;104025.34;3592248;40;20132;-65
2022/03/19 02:45:22;;;;;;;22.00;12.82;;;;;;;7.30;67.92;104019.09;3593291;40;20079;-64
2022/03/19 02:47:57;;;;;;;18.45;13.13;;;;;;;7.31;67.95;104020.00;3589972;40;20157;-65
2022/03/19 02:50:27;;;;;;;21.65;13.63;;;;;;;7.02;68.38;103975.31;3590108;39;20527;-65
2022/03/19 02:52:55;;;;;;;20.65;12.98;;;;;;;7.31;68.25;104020.88;3589737;40;20068;-65
2022/03/19 02:55:21;;;;;;;22.55;13.77;;;;;;;6.72;68.47;103920.84;3590530;39;20044;-65
2022/03/19 02:57:46;;;;;;;19.75;13.60;;;;;;;7.29;68.04;104017.28;3588882;39;20441;-65
2022/03/19 03:00:12;;;;;;;19.80;13.57;;;;;;;7.05;68.65;103979.78;3590591;40;20096;-65
2022/03/19 03:02:38;;;;;;;22.67;13.70;;;;;;;7.33;68.71;104023.56;3591722;40;20068;-65
2022/03/19 03:05:05;;;;;;;22.13;14.20;;;;;;;7.28;68.17;104019.97;3590525;39;20327;-65
2022/03/19 03:07:31;;;;;;;19.73;13.65;;;;;;;7.29;68.75;104017.28;3591461;39;20055;-65
2022/03/19 03:09:57;;;;;;;24.17;13.57;;;;;;;7.25;68.89;104018.19;3591870;39;20055;-64
2022/03/19 03:12:24;;;;;;;23.60;13.55;;;;;;;7.26;68.24;104027.97;3590413;40;21074;-64
2022/03/19 03:14:50;;;;;;;21.05;14.60;;;;;;;7.18;68.39;104030.66;3589552;40;20052;-64
2022/03/19 03:17:15;;;;;;;23.30;15.45;;;;;;;7.00;68.82;104003.81;3591215;40;20386;-65
2022/03/19 03:19:42;;;;;;;25.17;16.00;;;;;;;7.07;69.35;104027.06;3591975;40;20056;-65
2022/03/19 03:22:09;;;;;;;19.95;14.85;;;;;;;7.08;69.24;104031.50;3591628;39;20117;-64
2022/03/19 03:24:35;;;;;;;24.40;15.07;;;;;;;7.06;70.03;104027.91;3590998;39;20040;-64
2022/03/19 03:27:00;;;;;;;20.15;15.43;;;;;;;6.93;69.86;104010.94;3591846;39;20128;-65
2022/03/19 03:29:26;;;;;;;21.67;15.10;;;;;;;6.99;70.34;104018.09;3589412;39;20059;-65
2022/03/19 03:31:52;;;;;;;23.48;16.15;;;;;;;7.01;70.21;104016.31;3591392;39;20060;-65
2022/03/19 03:34:17;;;;;;;26.23;16.08;;;;;;;7.01;70.16;104037.72;3590986;40;20064;-65
2022/03/19 03:36:43;;;;;;;21.90;15.55;;;;;;;6.88;70.52;104011.78;3590551;39;20055;-65
2022/03/19 03:39:08;;;;;;;21.55;15.25;;;;;;;6.95;70.33;104025.22;3591647;40;20052;-65
2022/03/19 03:41:34;;;;;;;19.80;15.07;;;;;;;6.93;70.84;104026.97;3590554;40;20055;-65
2022/03/19 03:43:59;;;;;;;23.30;15.07;;;;;;;6.94;70.60;104025.19;3590874;39;20056;-65
2022/03/19 03:46:25;;;;;;;21.50;15.27;;;;;;;6.92;71.39;104032.31;3587982;40;20058;-64
2022/03/19 03:48:51;;;;;;;20.50;14.10;;;;;;;6.78;71.26;104001.94;3592070;40;20048;-67
2022/03/19 03:51:17;;;;;;;23.27;14.98;;;;;;;6.71;70.87;103988.53;3592099;40;20048;-64
2022/03/19 03:53:45;;;;;;;22.35;14.77;;;;;;;6.89;71.03;104019.81;3591804;39;20075;-65
2022/03/19 03:56:12;;;;;;;22.98;14.70;;;;;;;6.89;71.31;104024.28;3589732;39;20060;-65
2022/03/19 03:58:40;;;;;;;23.50;15.05;;;;;;;6.88;71.70;104025.16;3590903;40;20079;-65
2022/03/19 04:01:07;;;;;;;22.45;14.05;;;;;;;6.81;71.35;104009.97;3591418;39;20071;-64
2022/03/19 04:03:32;;;;;;;20.02;13.75;;;;;;;6.83;71.28;104018.91;3590169;39;20060;-64
2022/03/19 04:05:58;;;;;;;26.20;15.95;;;;;;;6.82;71.06;104018.00;3592044;40;20044;-66
2022/03/19 04:08:23;;;;;;;21.73;14.20;;;;;;;6.79;71.08;104009.06;3589816;39;20051;-63
2022/03/19 04:10:49;;;;;;;21.20;14.38;;;;;;;6.82;71.54;104009.06;3591314;39;20086;-64
2022/03/19 04:13:15;;;;;;;21.30;14.23;;;;;;;6.73;71.51;104000.13;3608142;23;20452;-64
2022/03/19 04:15:41;;;;;;;27.67;16.80;;;;;;;6.78;71.62;104008.16;3587658;39;20067;-65
2022/03/19 04:18:06;;;;;;;22.98;13.73;;;;;;;6.78;71.80;104009.94;3591369;40;20404;-65
2022/03/19 04:20:33;;;;;;;23.80;14.98;;;;;;;6.77;71.82;104016.19;3589956;39;20047;-65
2022/03/19 04:22:59;;;;;;;24.08;14.30;;;;;;;6.74;71.31;104001.91;3587959;40;20084;-64
2022/03/19 04:25:26;;;;;;;22.80;14.55;;;;;;;6.74;72.06;103999.25;3587042;40;20056;-64
2022/03/19 04:27:55;;;;;;;22.02;13.60;;;;;;;6.71;71.96;104004.56;3587906;40;20081;-65
2022/03/19 04:30:25;;;;;;;23.83;14.48;;;;;;;6.69;72.26;104014.38;3587050;40;20100;-65
2022/03/19 04:32:55;;;;;;;21.90;13.57;;;;;;;6.68;71.81;104007.22;3585423;39;20052;-66
2022/03/19 04:38:13;;;;;;;22.08;14.45;;;;;;;6.62;72.20;104007.19;3587205;39;20142;-64
2022/03/19 04:40:42;;;;;;;22.13;14.02;;;;;;;6.61;72.19;104005.41;3585480;39;20067;-66
2022/03/19 04:43:08;;;;;;;18.10;13.70;;;;;;;6.57;72.35;103998.28;3587271;39;20087;-64
2022/03/19 04:45:36;;;;;;;23.50;14.23;;;;;;;6.57;72.62;103995.59;3587016;39;20054;-64
2022/03/19 04:48:03;;;;;;;23.58;14.27;;;;;;;6.43;72.65;103975.91;3590050;39;20338;-65
2022/03/19 04:50:28;;;;;;;22.70;14.05;;;;;;;6.53;72.88;103991.09;3590178;39;20376;-63
2022/03/19 04:52:54;;;;;;;23.50;14.20;;;;;;;6.60;72.56;103998.28;3587068;39;20068;-63
2022/03/19 04:55:21;;;;;;;18.58;13.05;;;;;;;6.62;72.13;104000.94;3586686;39;20064;-64
2022/03/19 04:57:48;;;;;;;21.90;13.95;;;;;;;6.62;72.46;103996.50;3588202;39;20052;-64
2022/03/19 05:00:17;;;;;;;22.00;13.32;;;;;;;6.62;72.02;103995.59;3587775;39;20061;-64
2022/03/19 05:02:43;;;;;;;20.50;13.70;;;;;;;6.59;72.30;103999.16;3586423;39;20365;-64
2022/03/19 05:05:09;;;;;;;23.98;13.93;;;;;;;6.57;72.63;103998.28;3584612;40;20049;-64
2022/03/19 05:07:39;;;;;;;22.92;13.48;;;;;;;6.54;72.44;103995.56;3586639;40;20056;-63
2022/03/19 05:12:52;;;;;;;23.17;14.05;;;;;;;6.50;72.60;103996.41;3588046;39;20050;-65
2022/03/19 05:15:18;;;;;;;23.27;14.20;;;;;;;6.03;72.88;103915.09;3585142;39;20052;-62
2022/03/19 05:17:45;;;;;;;20.15;13.95;;;;;;;6.48;72.68;103992.88;3587196;40;20511;-63
2022/03/19 05:20:13;;;;;;;20.17;13.43;;;;;;;6.47;72.67;103996.41;3586606;39;20051;-63
2022/03/19 05:22:39;;;;;;;24.77;13.73;;;;;;;6.42;73.04;103999.06;3588615;39;20068;-62
2022/03/19 05:25:06;;;;;;;24.38;14.50;;;;;;;6.36;72.79;103988.31;3585521;40;20060;-64
2022/03/19 05:27:32;;;;;;;20.92;13.73;;;;;;;6.41;72.85;103999.06;3585188;40;20459;-63
2022/03/19 05:29:59;;;;;;;21.90;14.15;;;;;;;6.37;72.81;104007.91;3585154;40;20071;-63
2022/03/19 05:32:25;;;;;;;25.42;14.07;;;;;;;6.39;72.77;103998.16;3585965;40;20084;-63
2022/03/19 05:34:54;;;;;;;23.45;14.18;;;;;;;6.33;72.76;103999.00;3585986;40;20137;-65
2022/03/19 05:37:19;;;;;;;23.65;14.52;;;;;;;6.31;72.98;104010.53;3586329;40;20298;-63
2022/03/19 05:39:45;;;;;;;26.38;14.00;;;;;;;6.30;73.50;104001.63;3587777;40;20051;-63
2022/03/19 05:42:11;;;;;;;22.80;14.27;;;;;;;6.28;73.54;104007.00;3585542;40;20298;-64
2022/03/19 05:44:38;;;;;;;23.23;14.00;;;;;;;6.26;73.45;103997.16;3585097;39;20060;-63
2022/03/19 05:47:05;;;;;;;23.27;15.13;;;;;;;6.26;73.03;104000.72;3584678;39;20048;-63
2022/03/19 05:49:31;;;;;;;26.63;14.50;;;;;;;6.22;72.89;103990.03;3584398;39;20051;-62
2022/03/19 05:51:58;;;;;;;25.92;14.75;;;;;;;6.22;73.24;104004.28;3584751;40;20113;-64
2022/03/19 05:54:25;;;;;;;24.17;13.88;;;;;;;6.21;73.38;103999.78;3585497;39;20149;-63
2022/03/19 05:56:53;;;;;;;22.95;14.48;;;;;;;6.22;73.38;104001.59;3586482;39;20088;-63
2022/03/19 05:59:20;;;;;;;22.50;13.57;;;;;;;5.91;73.62;103947.03;3587314;39;20189;-64
2022/03/19 06:01:46;;;;;;;23.63;15.30;;;;;;;5.76;73.51;103920.19;3587766;39;20341;-63
2022/03/19 06:04:11;;;;;;;23.88;14.18;;;;;;;6.22;73.55;104006.94;3586608;39;20059;-64
2022/03/19 06:06:37;;;;;;;22.55;14.30;;;;;;;6.18;73.77;103994.41;3589192;39;20121;-63
2022/03/19 06:09:04;;;;;;;21.33;14.43;;;;;;;6.26;73.58;104002.50;3588556;39;20048;-63
2022/03/19 06:11:31;;;;;;;22.77;13.50;;;;;;;6.10;73.58;103973.91;3593046;39;20053;-63
2022/03/19 06:13:56;;;;;;;27.45;14.48;;;;;;;6.32;73.40;104007.00;3593572;39;20062;-63
2022/03/19 06:16:22;;;;;;;24.80;14.65;;;;;;;6.28;73.55;104001.66;3593034;39;20055;-64
2022/03/19 06:18:50;;;;;;;19.42;13.68;;;;;;;6.33;73.59;104003.44;3583830;39;20044;-64
2022/03/19 06:21:18;;;;;;;25.08;14.07;;;;;;;6.43;73.25;104015.97;3590480;39;20056;-62
2022/03/19 06:23:47;;;;;;;22.65;13.82;;;;;;;6.51;73.24;104020.50;3589872;39;20048;-63
2022/03/19 06:26:14;;;;;;;20.70;12.88;;;;;;;6.63;72.99;104022.38;3588852;39;20048;-63
2022/03/19 06:28:40;;;;;;;24.15;14.15;;;;;;;6.77;72.45;104014.41;3585022;39;20137;-63
2022/03/19 06:31:06;;;;;;;21.45;13.18;;;;;;;6.92;71.82;104016.28;3590642;39;20088;-64
2022/03/19 06:33:33;;;;;;;20.38;12.32;;;;;;;7.07;71.17;104018.09;3590348;39;20380;-63
2022/03/19 06:38:42;;;;;;;;;;;;;;;7.33;70.43;104007.53;3584953;40;20299;-63
2022/03/19 06:41:11;;;;;;;19.17;12.07;;;;;;;7.46;69.58;104011.13;3584988;40;19936;-63
2022/03/19 06:43:37;;;;;;;19.00;11.48;;;;;;;7.62;68.89;104011.16;3585994;39;20076;-63
2022/03/19 06:46:03;;;;;;;19.00;11.43;;;;;;;7.80;68.91;104014.72;3585114;39;20080;-63
2022/03/19 06:48:29;;;;;;;20.08;11.45;;;;;;;7.97;68.10;104018.31;3588018;40;20071;-63
2022/03/19 06:50:55;;;;;;;17.75;11.25;;;;;;;8.04;67.61;104009.38;3584555;40;20056;-63
2022/03/19 06:53:23;;;;;;;17.77;11.25;;;;;;;8.18;67.50;104021.88;3583217;39;20056;-63
2022/03/19 06:55:49;;;;;;;18.88;10.85;;;;;;;8.21;66.78;104009.38;3587245;39;20955;-65
2022/03/19 06:58:15;;;;;;;15.10;10.35;;;;;;;8.29;67.17;104015.63;3592101;39;20083;-62
2022/03/19 07:00:41;;;;;;;19.65;11.10;;;;;;;8.35;66.46;104010.25;3583428;40;20056;-64
2022/03/19 07:03:08;;;;;;;17.60;10.35;;;;;;;8.41;66.27;104011.19;3587128;40;20056;-64
2022/03/19 07:05:34;;;;;;;20.02;11.50;;;;;;;8.46;66.62;104018.31;3583558;40;20062;-64
2022/03/19 07:08:01;;;;;;;19.98;10.63;;;;;;;8.53;65.60;104014.75;3587160;39;20048;-64
2022/03/19 07:10:28;;;;;;;18.45;10.75;;;;;;;8.55;66.22;104012.94;3591142;39;20051;-63
2022/03/19 07:12:57;;;;;;;15.55;9.68;;;;;;;8.56;65.37;104013.81;3589101;39;20084;-63
2022/03/19 07:15:28;;;;;;;15.65;10.18;;;;;;;8.56;65.74;104014.75;3585804;39;20325;-62
2022/03/19 07:17:55;;;;;;;19.77;10.63;;;;;;;8.57;65.54;104013.84;3588213;39;20048;-64
2022/03/19 07:20:21;;;;;;;13.05;9.95;;;;;;;8.67;65.59;104017.38;3587058;39;20064;-65
2022/03/19 07:22:49;;;;;;;19.80;10.65;;;;;;;8.82;65.51;104011.09;3589818;39;20422;-63
2022/03/19 07:25:16;;;;;;;17.38;10.43;;;;;;;9.04;64.69;104010.13;3590239;39;20048;-62
2022/03/19 07:27:43;;;;;;;18.10;10.93;;;;;;;9.22;64.35;104017.16;3588734;39;20401;-64
2022/03/19 07:30:10;;;;;;;18.77;10.30;;;;;;;9.48;63.56;104009.00;3588027;39;20068;-63
2022/03/19 07:32:35;;;;;;;20.33;10.57;;;;;;;9.76;62.29;104006.09;3587135;39;20080;-63
2022/03/19 07:35:01;;;;;;;20.13;9.77;;;;;;;9.98;60.86;103993.38;3588680;39;20108;-65
2022/03/19 07:37:28;;;;;;;15.48;10.02;;;;;;;10.29;60.41;104002.09;3585426;39;20100;-63
2022/03/19 07:39:57;;;;;;;21.05;9.85;;;;;;;10.59;59.62;104003.59;3584171;40;20048;-63
2022/03/19 07:42:23;;;;;;;18.55;9.60;;;;;;;10.83;58.90;104002.41;3585377;40;20063;-64
2022/03/19 07:44:49;;;;;;;19.88;9.80;;;;;;;11.03;58.31;104001.28;3585725;39;20044;-63
2022/03/19 07:47:16;;;;;;;17.05;9.30;;;;;;;10.77;57.93;103927.16;3589443;39;20055;-64
2022/03/19 07:49:42;;;;;;;18.75;9.38;;;;;;;11.39;57.34;103995.41;3591724;39;20092;-63
2022/03/19 07:52:08;;;;;;;15.57;8.68;;;;;;;11.43;56.59;103988.16;3585697;40;20051;-64
2022/03/19 07:54:36;;;;;;;14.65;9.20;;;;;;;11.63;56.21;103990.53;3585851;40;20072;-64
2022/03/19 07:57:04;;;;;;;14.50;8.70;;;;;;;11.77;56.50;103999.31;3586993;39;20044;-64
2022/03/19 07:59:30;;;;;;;18.35;8.98;;;;;;;11.98;55.29;103997.19;3586641;39;20132;-63
2022/03/19 08:01:56;;;;;;;14.60;8.77;;;;;;;12.10;55.12;103988.91;3584922;40;20063;-64
2022/03/19 08:04:22;;;;;;;14.05;8.45;;;;;;;12.25;54.14;103998.53;3590244;39;20047;-64
2022/03/19 08:06:55;;;;;;;14.38;8.05;;;;;;;12.20;54.49;103976.16;3587335;39;20383;-64
2022/03/19 08:09:22;;;;;;;16.77;8.18;;;;;;;12.36;53.61;103999.22;3587948;40;20121;-67
2022/03/19 08:11:49;;;;;;;14.25;7.93;;;;;;;12.45;53.77;103999.06;3588158;40;20075;-65
2022/03/19 08:14:16;;;;;;;16.25;8.10;;;;;;;12.59;52.93;103982.63;3588516;40;20055;-65
2022/03/19 08:16:44;;;;;;;14.80;8.00;;;;;;;12.78;52.32;103986.72;3588903;39;20446;-64
2022/03/19 08:19:12;;;;;;;12.25;7.70;;;;;;;13.03;52.42;103988.88;3589525;39;20121;-64
2022/03/19 08:21:40;;;;;;;16.42;8.38;;;;;;;13.19;51.60;103982.25;3588291;40;20080;-64
2022/03/19 08:24:07;;;;;;;12.57;7.65;;;;;;;13.42;51.50;103991.69;3589845;39;20056;-64
2022/03/19 08:26:34;;;;;;;16.05;8.15;;;;;;;13.42;50.25;103978.16;3585929;39;20049;-64
2022/03/19 08:29:02;;;;;;;14.77;7.35;;;;;;;13.31;50.19;103970.28;3592671;39;20309;-65
2022/03/19 08:31:29;;;;;;;15.18;7.78;;;;;;;13.49;49.54;103990.59;3591722;39;20108;-64
2022/03/19 08:33:56;;;;;;;14.10;7.15;;;;;;;13.54;49.98;103983.28;3585625;39;20053;-64
2022/03/19 08:36:23;;;;;;;12.02;7.50;;;;;;;13.68;50.25;103981.13;3587711;39;20040;-65
2022/03/19 08:41:34;;;;;;;11.48;7.05;;;;;;;13.92;48.42;103995.88;3591184;39;20789;-64
2022/03/19 08:44:01;;;;;;;15.40;6.78;;;;;;;13.93;47.76;103983.22;3589345;39;20056;-63
2022/03/19 08:46:27;;;;;;;11.32;6.72;;;;;;;14.10;48.44;103991.78;3588746;39;20318;-64
2022/03/19 08:48:53;;;;;;;12.90;6.88;;;;;;;14.10;47.69;103972.84;3593427;39;20047;-62
2022/03/19 08:54:05;;;;;;;20.75;7.78;;;;;;;14.65;46.83;103983.09;3590658;39;20066;-64
2022/03/19 08:56:32;;;;;;;13.52;7.35;;;;;;;14.83;46.06;103975.34;3592827;39;20040;-64
2022/03/19 08:58:58;;;;;;;13.45;6.72;;;;;;;14.90;45.98;103984.16;3586935;39;20407;-64
2022/03/19 09:01:24;;;;;;;10.15;6.13;;;;;;;14.84;45.94;103981.66;3591543;39;20106;-64
2022/03/19 09:03:50;;;;;;;14.35;6.82;;;;;;;15.01;45.74;103978.44;3589740;40;20120;-65
2022/03/19 09:06:17;;;;;;;15.02;7.10;;;;;;;15.29;45.17;103975.78;3586639;39;20051;-64
2022/03/19 09:08:43;;;;;;;16.17;6.43;;;;;;;15.42;44.23;103973.56;3589669;39;20379;-64
2022/03/19 09:11:08;;;;;;;12.70;6.68;;;;;;;15.56;44.05;103990.28;3584259;40;20044;-64
2022/03/19 09:13:36;;;;;;;15.23;6.50;;;;;;;15.50;43.94;103972.38;3590851;39;20075;-63
2022/03/19 09:16:03;;;;;;;14.18;6.47;;;;;;;15.65;43.44;103967.41;3589025;39;20044;-64
2022/03/19 09:18:29;;;;;;;10.63;6.20;;;;;;;15.66;42.81;103969.16;3586334;40;20058;-63
2022/03/19 09:20:55;;;;;;;11.65;6.47;;;;;;;15.58;43.64;103974.84;3589694;39;20087;-64
2022/03/19 09:23:20;;;;;;;11.68;6.10;;;;;;;15.77;43.75;103967.91;3584958;39;20066;-64
2022/03/19 09:25:46;;;;;;;10.80;6.18;;;;;;;15.18;43.12;103875.84;3593343;39;20306;-65
2022/03/19 09:28:11;;;;;;;15.15;6.60;;;;;;;15.88;42.79;103978.38;3591030;39;20059;-64
2022/03/19 09:30:37;;;;;;;11.10;6.18;;;;;;;15.96;42.71;103975.44;3588817;40;20076;-64
2022/03/19 09:33:03;;;;;;;9.23;5.88;;;;;;;15.97;42.42;103972.66;3591693;39;20067;-64
2022/03/19 09:35:28;;;;;;;12.35;6.10;;;;;;;15.96;42.24;103964.56;3591207;40;20490;-63
2022/03/19 09:37:54;;;;;;;12.55;6.05;;;;;;;15.96;42.19;103954.59;3589676;39;20048;-64
2022/03/19 09:40:20;;;;;;;10.98;5.85;;;;;;;16.01;41.90;103963.44;3591570;39;20055;-64
2022/03/19 09:42:59;;;;;;;12.18;5.65;;;;;;;15.88;43.03;103932.25;3588494;39;20272;-64
2022/03/19 09:45:27;;;;;;;13.45;5.68;;;;;;;16.02;42.09;103954.38;3588061;39;20064;-64
2022/03/19 09:47:55;;;;;;;11.10;5.85;;;;;;;16.16;42.17;103950.31;3585183;40;20072;-65
2022/03/19 09:50:21;;;;;;;11.77;5.40;;;;;;;16.29;41.50;103946.19;3589252;39;20051;-65
2022/03/19 09:52:54;;;;;;;10.45;5.75;;;;;;;16.34;41.82;103944.22;3590159;39;20376;-64
2022/03/19 09:55:26;;;;;;;10.20;5.50;;;;;;;16.41;41.18;103929.47;3584633;40;20118;-65
2022/03/19 09:57:54;;;;;;;10.40;5.60;;;;;;;16.59;40.34;103935.16;3584617;40;20048;-65
2022/03/19 10:00:22;;;;;;;8.43;5.35;;;;;;;16.41;40.89;103906.84;3590714;39;20099;-64
2022/03/19 10:03:08;;;;;;;10.23;5.45;;;;;;;16.66;40.04;103932.16;3589599;39;20083;-65
2022/03/19 10:08:41;;;;;;;10.27;4.43;;;;;;;16.89;38.32;103922.25;3587948;39;20424;-64
2022/03/19 10:11:15;;;;;;;10.65;4.82;;;;;;;16.79;37.96;103927.16;3591088;39;20044;-62
2022/03/19 10:13:49;;;;;;;12.15;4.60;;;;;;;16.89;37.49;103917.69;3583490;39;20087;-63
2022/03/19 10:16:22;;;;;;;12.95;4.60;;;;;;;16.95;36.57;103913.88;3584356;40;20050;-64
2022/03/19 10:19:02;;;;;;;12.13;4.50;;;;;;;16.99;37.23;103909.19;3584227;39;20044;-65
2022/03/19 10:21:34;;;;;;;10.25;4.53;;;;;;;17.03;37.19;103916.25;3590382;39;20044;-64
2022/03/19 10:24:01;;;;;;;7.28;3.97;;;;;;;17.01;36.62;103901.88;3587005;39;20099;-64
2022/03/19 10:26:34;;;;;;;11.52;4.60;;;;;;;17.11;36.10;103895.09;3592322;39;20043;-64
2022/03/19 10:29:02;;;;;;;7.30;3.75;;;;;;;17.18;34.48;103883.03;3589111;39;20055;-65
2022/03/19 10:31:30;;;;;;;12.40;4.05;;;;;;;17.25;34.66;103887.25;3591820;39;20381;-64
2022/03/19 10:33:55;;;;;;;8.63;4.15;;;;;;;17.29;34.25;103878.06;3586352;39;20044;-64
2022/03/19 10:36:31;;;;;;;9.23;4.00;;;;;;;17.25;35.05;103881.81;3593332;39;20062;-64
2022/03/19 10:38:58;;;;;;;7.35;4.00;;;;;;;17.35;33.79;103880.50;3591276;39;20064;-64
2022/03/19 10:41:24;;;;;;;9.98;4.03;;;;;;;17.20;32.85;103859.41;3592141;39;20059;-63
2022/03/19 10:43:49;;;;;;;9.27;4.30;;;;;;;17.30;33.97;103863.50;3590888;39;20416;-64
2022/03/19 10:46:18;;;;;;;10.80;4.03;;;;;;;17.48;32.97;103866.41;3591644;39;20051;-63
2022/03/19 10:48:53;;;;;;;8.63;4.10;;;;;;;17.40;33.42;103807.75;3587563;39;20040;-64
2022/03/19 10:51:23;;;;;;;9.55;3.65;;;;;;;18.01;31.85;103860.47;3588697;39;20112;-63
2022/03/19 10:53:50;;;;;;;6.55;3.63;;;;;;;18.00;29.76;103851.41;3586250;39;20080;-64
2022/03/19 10:56:15;;;;;;;7.28;3.90;;;;;;;17.83;30.53;103856.75;3583965;40;20048;-62
2022/03/19 10:58:42;;;;;;;7.82;3.40;;;;;;;17.78;29.47;103845.16;3586390;39;20129;-63
2022/03/19 11:01:09;;;;;;;8.07;3.50;;;;;;;17.44;27.94;103810.34;3585409;40;20094;-63
2022/03/19 11:03:39;;;;;;;9.18;3.13;;;;;;;17.60;28.05;103857.69;3582288;40;20055;-63
2022/03/19 11:06:07;;;;;;;11.73;3.25;;;;;;;17.54;27.71;103842.53;3585336;40;20054;-63
2022/03/19 11:08:43;;;;;;;7.28;3.13;;;;;;;17.27;27.28;103756.72;3591874;39;20048;-62
2022/03/19 11:11:22;;;;;;;9.20;3.22;;;;;;;17.75;27.05;103831.66;3587883;39;20052;-62
2022/03/19 11:13:49;;;;;;;11.07;3.50;;;;;;;17.86;26.79;103810.34;3587116;39;20382;-65
2022/03/19 11:16:18;;;;;;;11.55;3.33;;;;;;;17.94;26.50;103796.38;3587111;39;20099;-65
2022/03/19 11:18:46;;;;;;;7.35;3.13;;;;;;;18.18;26.27;103800.69;3587275;39;20480;-64
2022/03/19 11:21:15;;;;;;;7.85;3.05;;;;;;;18.09;26.36;103779.34;3591205;39;20295;-63
2022/03/19 11:24:10;;;;;;;6.63;2.95;;;;;;;17.92;25.88;103727.50;3585815;39;20054;-63
2022/03/19 11:26:37;;;;;;;21.08;3.72;;;;;;;18.54;25.94;103803.50;3588121;39;20052;-64
2022/03/19 11:29:06;;;;;;;6.85;2.92;;;;;;;18.73;25.26;103792.63;3587451;40;20125;-62
2022/03/19 11:31:32;;;;;;;7.20;3.15;;;;;;;18.71;24.65;103771.81;3584183;40;20105;-63
2022/03/19 11:34:14;;;;;;;9.02;3.05;;;;;;;19.04;24.61;103788.38;3585502;39;20416;-63
2022/03/19 11:37:06;;;;;;;7.22;2.90;;;;;;;19.11;23.11;103775.31;3590693;39;20102;-62